Time;durP1;ratioP1;P1;durP2;ratioP2;P2;SDS_P1;SDS_P2;PMS_P1;PMS_P2;Temp;Humidity;BMP_temperature;BMP_pressure;BME280_temperature;BME280_humidity;BME280_pressure;Samples;Min_cycle;Max_cycle;Signal;HPM_P1;HPM_P2
2022/11/16 00:02:18;;;;;;;0.00;0.00;;;11.50;99.90;;;;;;5054000;28;20186;-66
2022/11/16 00:04:43;;;;;;;0.03;0.03;;;11.50;99.90;;;;;;5054053;28;20664;-66
2022/11/16 00:07:09;;;;;;;0.00;0.00;;;11.50;99.90;;;;;;5053577;28;20519;-66
2022/11/16 00:09:35;;;;;;;0.00;0.00;;;11.50;99.90;;;;;;5053774;28;20196;-66
2022/11/16 00:12:04;;;;;;;0.00;0.00;;;11.50;99.90;;;;;;5053713;28;20255;-66
2022/11/16 00:14:32;;;;;;;0.00;0.00;;;11.50;99.90;;;;;;5053733;28;20319;-66
2022/11/16 00:16:58;;;;;;;0.00;0.00;;;11.50;99.90;;;;;;5052734;28;20227;-66
2022/11/16 00:19:26;;;;;;;0.00;0.00;;;11.50;99.90;;;;;;5053347;28;20189;-66
2022/11/16 00:21:52;;;;;;;0.47;0.45;;;11.50;99.90;;;;;;5053628;28;20649;-66
2022/11/16 00:24:19;;;;;;;0.00;0.00;;;11.50;99.90;;;;;;5053490;28;20185;-65
2022/11/16 00:26:46;;;;;;;0.08;0.08;;;11.50;99.90;;;;;;5053283;28;20243;-66
2022/11/16 00:29:20;;;;;;;0.00;0.00;;;11.50;99.90;;;;;;5053658;28;20197;-66
2022/11/16 00:31:46;;;;;;;0.00;0.00;;;11.40;99.90;;;;;;5053575;28;20277;-66
2022/11/16 00:34:12;;;;;;;0.00;0.00;;;11.50;99.90;;;;;;5053277;28;20186;-66
2022/11/16 00:36:37;;;;;;;0.00;0.00;;;11.40;99.90;;;;;;5053057;28;20209;-66
2022/11/16 00:39:03;;;;;;;0.00;0.00;;;11.40;99.90;;;;;;5053332;28;20563;-65
2022/11/16 00:41:29;;;;;;;0.00;0.00;;;11.40;99.90;;;;;;5053162;28;20213;-66
2022/11/16 00:43:54;;;;;;;0.00;0.00;;;11.40;99.90;;;;;;5053012;28;20636;-66
2022/11/16 00:46:20;;;;;;;0.30;0.30;;;11.40;99.90;;;;;;5053097;28;20204;-66
2022/11/16 00:48:45;;;;;;;0.00;0.00;;;11.40;99.90;;;;;;5052594;28;20702;-65
2022/11/16 00:51:11;;;;;;;0.10;0.10;;;11.30;99.90;;;;;;5052033;28;20178;-66
2022/11/16 00:53:36;;;;;;;0.00;0.00;;;11.30;99.90;;;;;;5052956;28;20227;-65
2022/11/16 00:56:02;;;;;;;0.00;0.00;;;11.30;99.90;;;;;;5052537;28;20177;-65
2022/11/16 00:58:28;;;;;;;0.00;0.00;;;11.30;99.90;;;;;;5052420;28;20190;-65
2022/11/16 01:00:53;;;;;;;0.00;0.00;;;11.30;99.90;;;;;;5052374;28;20589;-66
2022/11/16 01:03:19;;;;;;;0.00;0.00;;;11.30;99.90;;;;;;5052028;28;20181;-66
2022/11/16 01:05:44;;;;;;;0.20;0.20;;;11.20;99.90;;;;;;5052625;28;20177;-66
2022/11/16 01:08:10;;;;;;;0.10;0.10;;;11.20;99.90;;;;;;5052560;28;20193;-65
2022/11/16 01:10:38;;;;;;;0.10;0.10;;;11.20;99.90;;;;;;5052065;28;20204;-65
2022/11/16 01:13:04;;;;;;;0.00;0.00;;;11.20;99.90;;;;;;5052267;28;20296;-66
2022/11/16 01:15:30;;;;;;;0.00;0.00;;;11.20;99.90;;;;;;5052256;28;20223;-66
2022/11/16 01:17:56;;;;;;;0.00;0.00;;;11.20;99.90;;;;;;5052209;28;20533;-65
2022/11/16 01:20:25;;;;;;;0.00;0.00;;;11.20;99.90;;;;;;5051967;28;20211;-65
2022/11/16 01:22:51;;;;;;;0.00;0.00;;;11.20;99.90;;;;;;5051717;28;20264;-66
2022/11/16 01:25:17;;;;;;;0.00;0.00;;;11.20;99.90;;;;;;5051750;28;20593;-66
2022/11/16 01:27:43;;;;;;;0.00;0.00;;;11.30;99.90;;;;;;5051260;28;20177;-66
2022/11/16 01:30:12;;;;;;;0.00;0.00;;;11.30;99.90;;;;;;5051228;28;20181;-66
2022/11/16 01:32:37;;;;;;;0.00;0.00;;;11.30;99.90;;;;;;5051615;28;20512;-66
2022/11/16 01:35:04;;;;;;;0.00;0.00;;;11.30;99.90;;;;;;5051594;28;20223;-66
2022/11/16 01:37:29;;;;;;;0.00;0.00;;;11.30;99.90;;;;;;5051588;28;20224;-66
2022/11/16 01:39:55;;;;;;;0.00;0.00;;;11.30;99.90;;;;;;5051484;28;20619;-65
2022/11/16 01:42:26;;;;;;;0.00;0.00;;;11.30;99.90;;;;;;5051813;28;20268;-66
2022/11/16 01:45:05;;;;;;;0.15;0.15;;;11.30;99.90;;;;;;5052006;28;20264;-66
2022/11/16 01:47:30;;;;;;;0.47;0.10;;;11.30;99.90;;;;;;5051664;28;20651;-66
2022/11/16 01:50:07;;;;;;;0.00;0.00;;;11.30;99.90;;;;;;5051869;28;20243;-66
2022/11/16 01:52:35;;;;;;;0.00;0.00;;;11.30;99.90;;;;;;5051452;28;20172;-66
2022/11/16 01:55:02;;;;;;;0.00;0.00;;;11.30;99.90;;;;;;5050675;28;20213;-66
2022/11/16 01:57:34;;;;;;;0.00;0.00;;;11.30;99.90;;;;;;5051185;28;20174;-66
2022/11/16 02:00:02;;;;;;;0.00;0.00;;;11.20;99.90;;;;;;5051746;28;20223;-66
2022/11/16 02:02:28;;;;;;;0.00;0.00;;;11.20;99.90;;;;;;5051455;28;20264;-66
2022/11/16 02:04:55;;;;;;;0.00;0.00;;;11.20;99.90;;;;;;5051498;28;20184;-66
2022/11/16 02:10:54;;;;;;;0.00;0.00;;;11.10;99.90;;;;;;5043330;28;20212;-66
2022/11/16 02:13:36;;;;;;;0.10;0.10;;;11.10;99.90;;;;;;5050121;28;20227;-66
2022/11/16 02:16:17;;;;;;;0.22;0.22;;;11.10;99.90;;;;;;5039981;28;20169;-66
2022/11/16 02:19:13;;;;;;;0.00;0.00;;;11.10;99.90;;;;;;5051881;28;20201;-66
2022/11/16 02:21:50;;;;;;;0.08;0.08;;;11.10;99.90;;;;;;5048975;28;20209;-65
2022/11/16 02:24:25;;;;;;;0.00;0.00;;;11.00;99.90;;;;;;5051390;28;20177;-66
2022/11/16 02:27:17;;;;;;;0.00;0.00;;;11.00;99.90;;;;;;5051172;28;20263;-66
2022/11/16 02:29:47;;;;;;;0.00;0.00;;;11.00;99.90;;;;;;5035884;28;20553;-65
2022/11/16 02:32:19;;;;;;;0.00;0.00;;;11.00;99.90;;;;;;5051511;28;20792;-66
2022/11/16 02:35:01;;;;;;;0.10;0.10;;;11.00;99.90;;;;;;5051424;28;20177;-66
2022/11/16 02:37:31;;;;;;;0.00;0.00;;;11.00;99.90;;;;;;5049391;28;20208;-66
2022/11/16 02:40:00;;;;;;;0.20;0.20;;;11.00;99.90;;;;;;5052102;28;20270;-66
2022/11/16 02:42:33;;;;;;;0.00;0.00;;;10.90;99.90;;;;;;5055907;28;20663;-65
2022/11/16 02:45:01;;;;;;;0.00;0.00;;;10.90;99.90;;;;;;5055370;28;20193;-66
2022/11/16 02:47:30;;;;;;;0.00;0.00;;;10.90;99.90;;;;;;5055963;28;20181;-65
2022/11/16 02:50:03;;;;;;;0.00;0.00;;;10.90;99.90;;;;;;5055451;28;20177;-65
2022/11/16 02:52:29;;;;;;;0.05;0.05;;;10.90;99.90;;;;;;5055730;28;20608;-66
2022/11/16 02:54:55;;;;;;;0.00;0.00;;;10.80;99.90;;;;;;5054892;28;20316;-65
2022/11/16 02:57:32;;;;;;;0.10;0.10;;;10.80;99.90;;;;;;5055780;28;20509;-66
2022/11/16 02:59:58;;;;;;;0.00;0.00;;;10.80;99.90;;;;;;5035431;28;20214;-66
2022/11/16 03:02:33;;;;;;;0.00;0.00;;;10.80;99.90;;;;;;5035801;28;20178;-65
2022/11/16 03:05:06;;;;;;;0.00;0.00;;;10.80;99.90;;;;;;5035465;28;20188;-65
2022/11/16 03:07:54;;;;;;;0.10;0.10;;;10.80;99.90;;;;;;5035491;28;20189;-65
2022/11/16 03:13:07;;;;;;;0.00;0.00;;;10.80;99.90;;;;;;5049109;28;20351;-66
2022/11/16 03:15:36;;;;;;;0.00;0.00;;;10.80;99.90;;;;;;5055642;28;20188;-65
2022/11/16 03:18:03;;;;;;;0.00;0.00;;;10.80;99.90;;;;;;5054940;28;20640;-66
2022/11/16 03:20:32;;;;;;;0.20;0.10;;;10.70;99.90;;;;;;5055148;28;20209;-66
2022/11/16 03:23:02;;;;;;;0.08;0.08;;;10.70;99.90;;;;;;5054801;28;20267;-65
2022/11/16 03:25:47;;;;;;;0.00;0.00;;;10.60;99.90;;;;;;5055122;28;20536;-65
2022/11/16 03:28:43;;;;;;;0.10;0.10;;;10.60;99.90;;;;;;5054692;28;20192;-65
2022/11/16 03:31:26;;;;;;;0.00;0.00;;;10.60;99.90;;;;;;5054656;28;20196;-66
2022/11/16 03:33:57;;;;;;;0.00;0.00;;;10.60;99.90;;;;;;5054668;28;20660;-66
2022/11/16 03:36:37;;;;;;;0.00;0.00;;;10.60;99.90;;;;;;5053421;28;20189;-66
2022/11/16 03:39:22;;;;;;;0.00;0.00;;;10.50;99.90;;;;;;5054720;28;20192;-65
2022/11/16 03:41:49;;;;;;;0.05;0.05;;;10.50;99.90;;;;;;5054569;28;20292;-66
2022/11/16 03:44:17;;;;;;;0.00;0.00;;;10.50;99.90;;;;;;5054643;28;20260;-65
2022/11/16 03:46:44;;;;;;;0.20;0.10;;;10.40;99.90;;;;;;5054395;28;20212;-65
2022/11/16 03:49:09;;;;;;;0.00;0.00;;;10.40;99.90;;;;;;5054329;28;20181;-65
2022/11/16 03:51:35;;;;;;;0.45;0.45;;;10.30;99.90;;;;;;5053283;28;20174;-66
2022/11/16 03:54:01;;;;;;;0.00;0.00;;;10.40;99.90;;;;;;5054338;28;20192;-66
2022/11/16 03:56:26;;;;;;;0.00;0.00;;;10.40;99.90;;;;;;5054288;28;20184;-65
2022/11/16 03:58:52;;;;;;;0.00;0.00;;;10.30;99.90;;;;;;5054511;28;20185;-66
2022/11/16 04:01:17;;;;;;;0.00;0.00;;;10.30;99.90;;;;;;5054096;28;20213;-66
2022/11/16 04:03:43;;;;;;;0.68;0.45;;;10.30;99.90;;;;;;5054335;28;20174;-66
2022/11/16 04:25:40;;;;;;;0.00;0.00;;;10.30;99.90;;;;;;5053680;28;20224;-66
2022/11/16 04:28:12;;;;;;;0.00;0.00;;;10.30;99.90;;;;;;5033983;28;20202;-66
2022/11/16 04:39:10;;;;;;;0.00;0.00;;;10.30;99.90;;;;;;5053358;28;20323;-67
2022/11/16 04:44:20;;;;;;;0.00;0.00;;;10.30;99.90;;;;;;5054092;28;20172;-69
2022/11/16 04:49:30;;;;;;;0.00;0.00;;;10.30;99.90;;;;;;5053613;28;20227;-67
2022/11/16 04:51:56;;;;;;;0.00;0.00;;;10.30;99.90;;;;;;5038243;28;20186;-68
2022/11/16 04:54:21;;;;;;;0.00;0.00;;;10.30;99.90;;;;;;5052898;28;20185;-69
2022/11/16 04:56:47;;;;;;;0.00;0.00;;;10.20;99.90;;;;;;5053057;28;20185;-71
2022/11/16 04:59:12;;;;;;;0.00;0.00;;;10.20;99.90;;;;;;5052729;28;20580;-72
2022/11/16 05:04:22;;;;;;;0.00;0.00;;;10.30;99.90;;;;;;5052862;28;20176;-66
2022/11/16 05:06:47;;;;;;;0.00;0.00;;;10.30;99.90;;;;;;5052485;28;20178;-66
2022/11/16 05:09:13;;;;;;;0.00;0.00;;;10.30;99.90;;;;;;5052961;28;20256;-67
2022/11/16 05:11:39;;;;;;;0.00;0.00;;;10.30;99.90;;;;;;5051721;28;20268;-67
2022/11/16 05:14:05;;;;;;;0.00;0.00;;;10.40;99.90;;;;;;5052340;28;20233;-71
2022/11/16 05:16:32;;;;;;;0.00;0.00;;;10.40;99.90;;;;;;5052557;28;20222;-67
2022/11/16 05:21:41;;;;;;;0.00;0.00;;;10.40;99.90;;;;;;5052831;28;20274;-66
2022/11/16 05:26:51;;;;;;;0.00;0.00;;;10.40;99.90;;;;;;5052990;28;20708;-65
2022/11/16 05:29:16;;;;;;;0.00;0.00;;;10.40;99.90;;;;;;5052777;28;20637;-66
2022/11/16 05:31:42;;;;;;;0.00;0.00;;;10.30;99.90;;;;;;5052713;28;20177;-66
2022/11/16 05:34:09;;;;;;;0.00;0.00;;;10.30;99.90;;;;;;5051813;28;20181;-66
2022/11/16 05:36:34;;;;;;;0.00;0.00;;;10.30;99.90;;;;;;5052551;28;20224;-65
2022/11/16 05:39:00;;;;;;;0.00;0.00;;;10.30;99.90;;;;;;5052538;28;20680;-65
2022/11/16 05:41:25;;;;;;;0.00;0.00;;;10.30;99.90;;;;;;5052321;28;20210;-66
2022/11/16 05:43:52;;;;;;;0.00;0.00;;;10.30;99.90;;;;;;5052138;28;20189;-67
2022/11/16 05:46:17;;;;;;;0.03;0.03;;;10.20;99.90;;;;;;5051619;28;20608;-69
2022/11/16 05:48:43;;;;;;;0.00;0.00;;;10.10;99.90;;;;;;5052476;28;20248;-69
2022/11/16 05:51:08;;;;;;;0.00;0.00;;;10.10;99.90;;;;;;5052250;28;20284;-69
2022/11/16 05:53:34;;;;;;;0.00;0.00;;;10.10;99.90;;;;;;5052391;28;20178;-69
2022/11/16 05:55:59;;;;;;;0.00;0.00;;;10.10;99.90;;;;;;5052206;28;20178;-69
2022/11/16 05:58:25;;;;;;;0.05;0.05;;;10.00;99.90;;;;;;5050887;28;20220;-69
2022/11/16 06:00:51;;;;;;;0.15;0.15;;;10.00;99.90;;;;;;5051877;28;20253;-69
2022/11/16 06:03:16;;;;;;;0.00;0.00;;;10.00;99.90;;;;;;5052196;28;20231;-69
2022/11/16 06:05:42;;;;;;;0.00;0.00;;;10.00;99.90;;;;;;5051004;28;20222;-69
2022/11/16 06:08:07;;;;;;;0.08;0.08;;;10.00;99.90;;;;;;5051955;28;20174;-69
2022/11/16 06:10:33;;;;;;;0.00;0.00;;;9.90;99.90;;;;;;5052286;28;20182;-68
2022/11/16 06:12:58;;;;;;;0.13;0.13;;;9.90;99.90;;;;;;5052060;28;20228;-69
2022/11/16 06:15:24;;;;;;;0.28;0.28;;;9.90;99.90;;;;;;5051545;28;20208;-69
2022/11/16 06:17:49;;;;;;;0.00;0.00;;;9.90;99.90;;;;;;5052026;28;20181;-69
2022/11/16 06:20:15;;;;;;;0.00;0.00;;;9.80;99.90;;;;;;5051997;28;20220;-69
2022/11/16 06:22:41;;;;;;;0.00;0.00;;;9.90;99.90;;;;;;5052078;28;20208;-68
2022/11/16 06:25:07;;;;;;;0.10;0.10;;;9.90;99.90;;;;;;5050300;28;20189;-69
2022/11/16 06:27:33;;;;;;;0.00;0.00;;;9.90;99.90;;;;;;5050341;28;20543;-68
2022/11/16 06:29:59;;;;;;;0.00;0.00;;;9.90;99.90;;;;;;5051311;28;20181;-69
2022/11/16 06:32:25;;;;;;;0.00;0.00;;;9.90;99.90;;;;;;5051761;28;20589;-68
2022/11/16 06:34:51;;;;;;;0.00;0.00;;;9.90;99.90;;;;;;5051316;28;20311;-68
2022/11/16 06:37:17;;;;;;;0.00;0.00;;;9.90;99.90;;;;;;5051218;28;20252;-69
2022/11/16 06:39:43;;;;;;;0.00;0.00;;;9.90;99.90;;;;;;5052139;28;20166;-69
2022/11/16 06:42:09;;;;;;;0.00;0.00;;;9.90;99.90;;;;;;5051716;28;20177;-69
2022/11/16 06:44:35;;;;;;;0.03;0.03;;;9.90;99.90;;;;;;5051852;28;20201;-69
2022/11/16 06:47:01;;;;;;;0.05;0.05;;;9.90;99.90;;;;;;5051754;28;20177;-69
2022/11/16 06:49:26;;;;;;;0.10;0.10;;;9.90;99.90;;;;;;5051889;28;20227;-68
2022/11/16 06:51:52;;;;;;;0.00;0.00;;;9.80;99.90;;;;;;5051040;28;20177;-69
2022/11/16 06:54:17;;;;;;;0.00;0.00;;;9.80;99.90;;;;;;5051689;28;20170;-69
2022/11/16 06:56:43;;;;;;;0.00;0.00;;;9.80;99.90;;;;;;5051830;28;20195;-68
2022/11/16 06:59:08;;;;;;;0.00;0.00;;;9.80;99.90;;;;;;5051190;28;20742;-68
2022/11/16 07:01:34;;;;;;;0.00;0.00;;;9.80;99.90;;;;;;5050938;28;20219;-68
2022/11/16 07:04:00;;;;;;;0.00;0.00;;;9.80;99.90;;;;;;5051673;28;20196;-69
2022/11/16 07:06:26;;;;;;;0.00;0.00;;;9.90;99.90;;;;;;5051626;28;20182;-68
2022/11/16 07:08:52;;;;;;;0.08;0.08;;;9.90;99.90;;;;;;5051640;28;20579;-68
2022/11/16 07:11:19;;;;;;;0.05;0.05;;;9.90;99.90;;;;;;5051436;28;20177;-69
2022/11/16 07:13:44;;;;;;;0.00;0.00;;;10.00;99.90;;;;;;5051201;28;20320;-68
2022/11/16 07:16:10;;;;;;;0.00;0.00;;;10.00;99.90;;;;;;5051490;28;20332;-69
2022/11/16 07:18:38;;;;;;;0.00;0.00;;;10.00;99.90;;;;;;5051724;28;20177;-68
2022/11/16 07:21:16;;;;;;;0.00;0.00;;;10.10;99.90;;;;;;5051235;28;20266;-69
2022/11/16 07:23:41;;;;;;;0.00;0.00;;;10.10;99.90;;;;;;5050354;28;20253;-68
2022/11/16 07:26:09;;;;;;;0.00;0.00;;;10.20;99.90;;;;;;5052132;28;20272;-69
2022/11/16 07:28:34;;;;;;;0.00;0.00;;;10.20;99.90;;;;;;5055302;28;20170;-68
2022/11/16 07:31:08;;;;;;;0.00;0.00;;;10.30;99.90;;;;;;5055199;28;20177;-68
2022/11/16 07:33:34;;;;;;;0.00;0.00;;;10.30;99.90;;;;;;5055272;28;20186;-69
2022/11/16 07:36:02;;;;;;;0.00;0.00;;;10.30;99.90;;;;;;5055109;28;20181;-69
2022/11/16 07:38:29;;;;;;;0.00;0.00;;;10.40;99.90;;;;;;5055200;28;20731;-69
2022/11/16 07:41:02;;;;;;;0.00;0.00;;;10.40;99.90;;;;;;5054907;28;20209;-68
2022/11/16 07:43:33;;;;;;;0.00;0.00;;;10.50;99.90;;;;;;5053567;28;20641;-68
2022/11/16 07:46:04;;;;;;;0.00;0.00;;;10.50;99.90;;;;;;5054948;28;20514;-69
2022/11/16 07:48:31;;;;;;;0.10;0.10;;;10.50;99.90;;;;;;5053645;28;20185;-69
2022/11/16 07:51:01;;;;;;;0.00;0.00;;;10.60;99.90;;;;;;5054664;28;20178;-69
2022/11/16 07:53:26;;;;;;;0.00;0.00;;;10.60;99.90;;;;;;5054834;28;20260;-69
2022/11/16 07:55:53;;;;;;;0.03;0.03;;;10.70;99.90;;;;;;5054670;28;20644;-69
2022/11/16 07:58:19;;;;;;;0.00;0.00;;;10.70;99.90;;;;;;5054662;28;20637;-69
2022/11/16 08:00:45;;;;;;;0.00;0.00;;;10.80;99.90;;;;;;5054566;28;20307;-69
2022/11/16 08:03:10;;;;;;;0.00;0.00;;;10.80;99.90;;;;;;5054588;28;20209;-69
2022/11/16 08:05:36;;;;;;;0.00;0.00;;;10.80;99.90;;;;;;5053372;28;20181;-69
2022/11/16 08:08:01;;;;;;;0.00;0.00;;;10.90;99.90;;;;;;5054466;28;20648;-68
2022/11/16 08:10:28;;;;;;;0.00;0.00;;;11.00;99.90;;;;;;5054498;28;20628;-68
2022/11/16 08:12:54;;;;;;;0.00;0.00;;;11.00;99.90;;;;;;5054285;28;20518;-68
2022/11/16 08:15:20;;;;;;;0.00;0.00;;;11.10;99.90;;;;;;5054493;28;20644;-68
2022/11/16 08:17:45;;;;;;;0.00;0.00;;;11.10;99.90;;;;;;5054299;28;20178;-68
2022/11/16 08:20:11;;;;;;;0.00;0.00;;;11.10;99.90;;;;;;5054168;28;20209;-68
2022/11/16 08:22:37;;;;;;;0.00;0.00;;;11.10;99.90;;;;;;5054229;28;20536;-68
2022/11/16 08:25:03;;;;;;;0.00;0.00;;;11.10;99.90;;;;;;5054029;28;20209;-69
2022/11/16 08:27:31;;;;;;;0.00;0.00;;;11.10;99.90;;;;;;5054236;28;20228;-68
2022/11/16 08:29:56;;;;;;;0.00;0.00;;;11.20;99.90;;;;;;5054261;28;20178;-68
2022/11/16 08:32:22;;;;;;;0.00;0.00;;;11.30;99.90;;;;;;5054117;28;20676;-68
2022/11/16 08:34:47;;;;;;;0.00;0.00;;;11.40;99.90;;;;;;5053858;28;20656;-68
2022/11/16 08:37:13;;;;;;;0.00;0.00;;;11.50;99.90;;;;;;5053622;28;20173;-68
2022/11/16 08:39:39;;;;;;;0.00;0.00;;;11.60;99.90;;;;;;5053403;28;20173;-68
2022/11/16 08:42:04;;;;;;;0.00;0.00;;;11.60;99.90;;;;;;5053718;28;20184;-68
2022/11/16 08:44:30;;;;;;;0.00;0.00;;;11.70;99.90;;;;;;5053840;28;20177;-68
2022/11/16 08:46:55;;;;;;;0.00;0.00;;;11.90;99.90;;;;;;5053589;28;20539;-68
2022/11/16 08:49:21;;;;;;;0.00;0.00;;;12.00;99.90;;;;;;5053770;28;20257;-68
2022/11/16 08:51:47;;;;;;;0.00;0.00;;;12.10;99.90;;;;;;5053591;28;20514;-68
2022/11/16 08:54:12;;;;;;;0.00;0.00;;;12.10;99.90;;;;;;5053725;28;20264;-68
2022/11/16 08:56:38;;;;;;;0.00;0.00;;;12.10;99.90;;;;;;5053604;28;20180;-68
2022/11/16 08:59:03;;;;;;;0.00;0.00;;;12.20;99.90;;;;;;5053456;28;20512;-68
2022/11/16 09:01:30;;;;;;;0.05;0.05;;;12.30;99.90;;;;;;5053465;28;20707;-68
2022/11/16 09:03:55;;;;;;;0.00;0.00;;;12.40;99.90;;;;;;5052103;28;20537;-68
2022/11/16 09:06:23;;;;;;;0.00;0.00;;;12.40;99.90;;;;;;5053301;28;20185;-68
2022/11/16 09:08:49;;;;;;;0.00;0.00;;;12.50;99.90;;;;;;5053197;28;20611;-68
2022/11/16 09:11:17;;;;;;;0.00;0.00;;;12.80;99.90;;;;;;5053273;28;20265;-68
2022/11/16 09:13:44;;;;;;;0.00;0.00;;;12.70;99.90;;;;;;5053032;28;20308;-68
2022/11/16 09:16:10;;;;;;;0.00;0.00;;;12.70;99.90;;;;;;5053129;28;20182;-68
2022/11/16 09:18:36;;;;;;;0.00;0.00;;;12.70;99.90;;;;;;5053226;28;20519;-68
2022/11/16 09:21:02;;;;;;;0.00;0.00;;;12.60;99.90;;;;;;5052936;28;20299;-68
2022/11/16 09:23:28;;;;;;;0.00;0.00;;;12.60;99.90;;;;;;5053139;28;20184;-68
2022/11/16 09:25:54;;;;;;;0.00;0.00;;;12.50;99.90;;;;;;5052893;28;20181;-68
2022/11/16 09:28:21;;;;;;;0.00;0.00;;;12.50;99.90;;;;;;5053033;28;20633;-68
2022/11/16 09:30:49;;;;;;;0.00;0.00;;;12.50;99.90;;;;;;5053110;28;20678;-68
2022/11/16 09:33:15;;;;;;;0.00;0.00;;;12.60;99.90;;;;;;5052784;28;20633;-68
2022/11/16 09:35:40;;;;;;;0.00;0.00;;;12.90;99.90;;;;;;5052920;28;20247;-68
2022/11/16 09:38:08;;;;;;;0.00;0.00;;;13.10;99.90;;;;;;5052647;28;20177;-68
2022/11/16 09:40:37;;;;;;;0.00;0.00;;;13.40;99.90;;;;;;5052755;28;20201;-68
2022/11/16 09:43:23;;;;;;;0.00;0.00;;;13.50;99.90;;;;;;5052933;28;20560;-68
2022/11/16 09:45:56;;;;;;;0.00;0.00;;;13.70;99.90;;;;;;5051473;28;20656;-68
2022/11/16 09:48:23;;;;;;;0.00;0.00;;;13.80;99.90;;;;;;5052589;28;20169;-68
2022/11/16 09:51:11;;;;;;;0.00;0.00;;;13.70;99.90;;;;;;5051654;28;20252;-68
2022/11/16 09:53:55;;;;;;;0.00;0.00;;;13.60;99.90;;;;;;5052699;28;20180;-68
2022/11/16 09:56:27;;;;;;;0.00;0.00;;;13.40;99.90;;;;;;5052471;28;20625;-68
2022/11/16 09:59:07;;;;;;;0.00;0.00;;;13.20;99.90;;;;;;5052373;28;20327;-68
2022/11/16 10:01:39;;;;;;;0.00;0.00;;;13.10;99.90;;;;;;5052458;28;20291;-68
2022/11/16 10:04:11;;;;;;;0.00;0.00;;;13.10;99.90;;;;;;5052393;28;20165;-68
2022/11/16 10:06:49;;;;;;;0.00;0.00;;;13.00;99.90;;;;;;5052300;28;20180;-68
2022/11/16 10:09:14;;;;;;;0.00;0.00;;;13.00;99.90;;;;;;5052278;28;20180;-68
2022/11/16 10:12:05;;;;;;;0.00;0.00;;;13.00;99.90;;;;;;5052287;28;20173;-68
2022/11/16 10:15:03;;;;;;;0.00;0.00;;;13.00;99.90;;;;;;5052192;28;20751;-68
2022/11/16 10:18:11;;;;;;;0.00;0.00;;;13.00;99.90;;;;;;5052337;28;20264;-68
2022/11/16 10:20:55;;;;;;;0.00;0.00;;;13.00;99.90;;;;;;5052132;28;20212;-68
2022/11/16 10:23:24;;;;;;;0.00;0.00;;;13.00;99.90;;;;;;5052218;28;20180;-68
2022/11/16 10:26:03;;;;;;;0.00;0.00;;;13.10;99.90;;;;;;5050619;28;20185;-68
2022/11/16 10:28:59;;;;;;;0.00;0.00;;;13.20;99.90;;;;;;5052028;28;20603;-68
2022/11/16 10:32:01;;;;;;;0.00;0.00;;;13.30;99.90;;;;;;5051767;28;20182;-68
2022/11/16 10:34:36;;;;;;;0.00;0.00;;;13.50;99.90;;;;;;5052037;28;20516;-68
2022/11/16 10:37:07;;;;;;;0.00;0.00;;;13.70;99.90;;;;;;5051954;28;20901;-68
2022/11/16 10:39:33;;;;;;;0.00;0.00;;;13.90;99.90;;;;;;5052054;28;20184;-68
2022/11/16 10:42:04;;;;;;;0.00;0.00;;;14.00;99.90;;;;;;5051784;28;20569;-68
2022/11/16 10:44:36;;;;;;;0.10;0.10;;;14.10;99.90;;;;;;5051953;28;20169;-68
2022/11/16 10:47:06;;;;;;;0.00;0.00;;;14.30;99.90;;;;;;5051826;28;20169;-68
2022/11/16 10:49:42;;;;;;;0.00;0.00;;;14.50;99.90;;;;;;5051894;28;20173;-68
2022/11/16 10:52:07;;;;;;;0.00;0.00;;;14.70;99.90;;;;;;5051688;28;20177;-68
2022/11/16 10:54:33;;;;;;;0.00;0.00;;;14.90;99.90;;;;;;5051762;28;20660;-68
2022/11/16 10:57:04;;;;;;;0.00;0.00;;;14.90;99.90;;;;;;5051691;28;20177;-68
2022/11/16 10:59:47;;;;;;;0.10;0.10;;;14.90;99.90;;;;;;5052022;28;20239;-68
2022/11/16 11:02:22;;;;;;;0.00;0.00;;;14.90;99.90;;;;;;5054445;28;20196;-68
2022/11/16 11:05:06;;;;;;;0.00;0.00;;;14.90;99.90;;;;;;5055431;28;20681;-68
2022/11/16 11:07:36;;;;;;;0.00;0.00;;;15.00;99.90;;;;;;5055592;28;20638;-68
2022/11/16 11:10:03;;;;;;;0.00;0.00;;;15.00;99.90;;;;;;5055564;28;20201;-69
2022/11/16 11:12:38;;;;;;;0.00;0.00;;;15.10;99.90;;;;;;5055389;28;20225;-69
2022/11/16 11:15:09;;;;;;;0.00;0.00;;;15.20;99.90;;;;;;5055372;28;20553;-69
2022/11/16 11:17:40;;;;;;;0.00;0.00;;;15.00;99.90;;;;;;5055541;28;20177;-69
2022/11/16 11:20:15;;;;;;;0.00;0.00;;;15.00;99.90;;;;;;5055309;28;20270;-70
2022/11/16 11:22:58;;;;;;;0.00;0.00;;;14.90;99.90;;;;;;5055471;28;20369;-69
2022/11/16 11:25:31;;;;;;;0.00;0.00;;;14.90;99.90;;;;;;5055184;28;20645;-69
2022/11/16 11:28:33;;;;;;;0.00;0.00;;;14.90;99.90;;;;;;5055243;28;20182;-69
2022/11/16 11:31:00;;;;;;;0.00;0.00;;;14.90;99.90;;;;;;5055308;28;20177;-69
2022/11/16 11:33:32;;;;;;;0.00;0.00;;;14.90;99.90;;;;;;5055102;28;20173;-69
2022/11/16 11:36:05;;;;;;;0.00;0.00;;;14.90;99.90;;;;;;5055212;28;20256;-69
2022/11/16 11:38:32;;;;;;;0.00;0.00;;;14.70;99.90;;;;;;5055278;28;20708;-69
2022/11/16 11:41:01;;;;;;;0.00;0.00;;;14.70;99.90;;;;;;5054920;28;20299;-69
2022/11/16 11:43:28;;;;;;;0.00;0.00;;;14.70;99.90;;;;;;5054980;28;20177;-70
2022/11/16 11:46:19;;;;;;;0.00;0.00;;;14.70;99.90;;;;;;5053574;28;20178;-70
2022/11/16 11:48:53;;;;;;;0.00;0.00;;;14.60;99.90;;;;;;5054773;28;20166;-70
2022/11/16 11:51:28;;;;;;;0.00;0.00;;;14.50;99.90;;;;;;5054808;28;20511;-70
2022/11/16 11:53:56;;;;;;;0.00;0.00;;;14.50;99.90;;;;;;5054754;28;20259;-69
2022/11/16 11:56:23;;;;;;;0.00;0.00;;;14.40;99.90;;;;;;5054888;28;20181;-70
2022/11/16 11:58:49;;;;;;;0.00;0.00;;;14.40;99.90;;;;;;5054736;28;20182;-69
2022/11/16 12:01:35;;;;;;;0.00;0.00;;;14.40;99.90;;;;;;5054573;28;20212;-67
2022/11/16 12:04:18;;;;;;;0.00;0.00;;;14.50;99.90;;;;;;5054624;28;20633;-67
2022/11/16 12:07:08;;;;;;;0.00;0.00;;;14.60;99.90;;;;;;5054463;28;20636;-67
2022/11/16 12:09:50;;;;;;;0.00;0.00;;;14.70;99.90;;;;;;5054499;28;20256;-70
2022/11/16 12:12:26;;;;;;;0.00;0.00;;;14.70;99.90;;;;;;5052544;28;20323;-70
2022/11/16 12:15:45;;;;;;;0.00;0.00;;;14.80;99.90;;;;;;5054501;28;20544;-70
2022/11/16 12:18:43;;;;;;;0.00;0.00;;;14.80;99.90;;;;;;5054375;28;20241;-70
2022/11/16 12:21:49;;;;;;;0.00;0.00;;;14.70;99.90;;;;;;5045547;28;20225;-70
2022/11/16 12:24:31;;;;;;;0.00;0.00;;;14.70;99.90;;;;;;5051242;28;20201;-70
2022/11/16 12:27:07;;;;;;;0.00;0.00;;;14.70;99.90;;;;;;5052819;28;20182;-70
2022/11/16 12:30:02;;;;;;;0.00;0.00;;;14.70;99.90;;;;;;5053076;28;20184;-70
2022/11/16 12:32:55;;;;;;;0.00;0.00;;;14.80;99.90;;;;;;5054089;28;20668;-70
2022/11/16 12:35:39;;;;;;;0.00;0.00;;;14.80;99.90;;;;;;5054203;28;20594;-70
2022/11/16 12:38:33;;;;;;;0.00;0.00;;;14.80;99.90;;;;;;5053898;28;20193;-70
2022/11/16 12:41:20;;;;;;;0.00;0.00;;;14.90;99.90;;;;;;5043872;28;20232;-70
2022/11/16 12:44:16;;;;;;;0.00;0.00;;;14.80;99.90;;;;;;5053838;28;20530;-70
2022/11/16 12:47:08;;;;;;;0.00;0.00;;;14.70;99.90;;;;;;5053819;28;20232;-70
2022/11/16 12:49:59;;;;;;;0.00;0.00;;;14.80;99.90;;;;;;5053856;28;20174;-69
2022/11/16 12:52:50;;;;;;;0.00;0.00;;;14.70;99.90;;;;;;5053763;28;20177;-70
2022/11/16 12:55:53;;;;;;;0.00;0.00;;;14.70;99.90;;;;;;5053736;28;20887;-69
2022/11/16 12:58:30;;;;;;;0.00;0.00;;;14.60;99.90;;;;;;5053583;28;20192;-70
2022/11/16 13:01:21;;;;;;;0.00;0.00;;;14.50;99.90;;;;;;5053383;28;20216;-67
2022/11/16 13:03:53;;;;;;;0.00;0.00;;;14.50;99.90;;;;;;5053573;28;20177;-67
2022/11/16 13:06:32;;;;;;;0.00;0.00;;;14.50;99.90;;;;;;5053392;28;20177;-67
2022/11/16 13:09:09;;;;;;;0.00;0.00;;;14.40;99.90;;;;;;5052977;28;20188;-67
2022/11/16 13:11:39;;;;;;;0.00;0.00;;;14.30;99.90;;;;;;5052774;28;20551;-65
2022/11/16 13:14:12;;;;;;;0.00;0.00;;;14.30;99.90;;;;;;5050470;28;20335;-65
2022/11/16 13:16:37;;;;;;;0.00;0.00;;;14.20;99.90;;;;;;5053299;28;20179;-65
2022/11/16 13:19:05;;;;;;;0.00;0.00;;;14.20;99.90;;;;;;5052977;28;20177;-65
2022/11/16 13:21:38;;;;;;;0.00;0.00;;;14.00;99.90;;;;;;5053001;28;20779;-65
2022/11/16 13:24:18;;;;;;;0.00;0.00;;;13.90;99.90;;;;;;5052789;28;20716;-65
2022/11/16 13:27:23;;;;;;;0.00;0.00;;;13.90;99.90;;;;;;5052904;28;20181;-65
2022/11/16 13:30:14;;;;;;;1.08;0.25;;;13.80;99.90;;;;;;5052687;28;20186;-65
2022/11/16 13:32:45;;;;;;;0.00;0.00;;;13.70;99.90;;;;;;5052912;28;20264;-65
2022/11/16 13:35:15;;;;;;;0.00;0.00;;;13.70;99.90;;;;;;5052184;28;20178;-66
2022/11/16 13:37:46;;;;;;;0.00;0.00;;;13.60;99.90;;;;;;5056731;28;20200;-65
2022/11/16 13:40:24;;;;;;;0.00;0.00;;;13.60;99.90;;;;;;5052583;28;20209;-65
2022/11/16 13:43:04;;;;;;;0.00;0.00;;;13.60;99.90;;;;;;5052563;28;20215;-65
2022/11/16 13:46:01;;;;;;;0.00;0.00;;;13.60;99.90;;;;;;5052739;28;20191;-65
2022/11/16 13:48:34;;;;;;;0.00;0.00;;;13.80;99.90;;;;;;5045623;28;20277;-66
2022/11/16 13:51:06;;;;;;;0.00;0.00;;;13.90;99.90;;;;;;5052411;28;20268;-67
2022/11/16 13:53:36;;;;;;;0.70;0.70;;;14.00;99.90;;;;;;5052513;28;20644;-66
2022/11/16 13:56:04;;;;;;;0.00;0.00;;;14.10;99.90;;;;;;5052441;28;20637;-66
2022/11/16 13:58:32;;;;;;;0.00;0.00;;;14.20;99.90;;;;;;5052475;28;20271;-66